sensor_id;sensor_type;location;lat;lon;timestamp;P1;durP1;ratioP1;P2;durP2;ratioP2
67965;SDS011;54749;47.850;9.002;2023-06-22T00:00:02;25.40;;;8.83;;
67965;SDS011;54749;47.850;9.002;2023-06-22T00:02:57;20.27;;;7.82;;
67965;SDS011;54749;47.850;9.002;2023-06-22T00:05:25;21.27;;;8.80;;
67965;SDS011;54749;47.850;9.002;2023-06-22T00:07:52;18.40;;;7.18;;
67965;SDS011;54749;47.850;9.002;2023-06-22T00:10:19;18.67;;;7.65;;
67965;SDS011;54749;47.850;9.002;2023-06-22T00:12:46;18.07;;;7.43;;
67965;SDS011;54749;47.850;9.002;2023-06-22T00:15:13;21.38;;;7.70;;
67965;SDS011;54749;47.850;9.002;2023-06-22T00:17:40;18.00;;;7.53;;
67965;SDS011;54749;47.850;9.002;2023-06-22T00:20:07;15.30;;;6.70;;
67965;SDS011;54749;47.850;9.002;2023-06-22T00:22:37;19.45;;;8.23;;
67965;SDS011;54749;47.850;9.002;2023-06-22T00:25:08;22.87;;;8.20;;
67965;SDS011;54749;47.850;9.002;2023-06-22T00:27:36;15.30;;;7.05;;
67965;SDS011;54749;47.850;9.002;2023-06-22T00:30:05;19.63;;;6.60;;
67965;SDS011;54749;47.850;9.002;2023-06-22T00:32:33;14.65;;;6.53;;
67965;SDS011;54749;47.850;9.002;2023-06-22T00:35:00;18.33;;;7.07;;
67965;SDS011;54749;47.850;9.002;2023-06-22T00:37:29;15.43;;;6.37;;
67965;SDS011;54749;47.850;9.002;2023-06-22T00:39:58;16.70;;;6.03;;
67965;SDS011;54749;47.850;9.002;2023-06-22T00:42:25;16.02;;;6.43;;
67965;SDS011;54749;47.850;9.002;2023-06-22T00:44:52;16.48;;;7.00;;
67965;SDS011;54749;47.850;9.002;2023-06-22T00:47:20;22.00;;;8.15;;
67965;SDS011;54749;47.850;9.002;2023-06-22T00:49:48;21.17;;;7.63;;
67965;SDS011;54749;47.850;9.002;2023-06-22T00:52:21;20.30;;;7.72;;
67965;SDS011;54749;47.850;9.002;2023-06-22T00:54:55;17.20;;;6.82;;
67965;SDS011;54749;47.850;9.002;2023-06-22T00:57:24;19.02;;;6.95;;
67965;SDS011;54749;47.850;9.002;2023-06-22T00:59:55;16.45;;;5.65;;
67965;SDS011;54749;47.850;9.002;2023-06-22T01:02:22;16.47;;;7.37;;
67965;SDS011;54749;47.850;9.002;2023-06-22T01:04:50;16.83;;;6.57;;
67965;SDS011;54749;47.850;9.002;2023-06-22T01:12:50;23.40;;;7.65;;
67965;SDS011;54749;47.850;9.002;2023-06-22T01:15:28;22.27;;;7.13;;
67965;SDS011;54749;47.850;9.002;2023-06-22T01:17:57;18.02;;;7.40;;
67965;SDS011;54749;47.850;9.002;2023-06-22T01:20:26;20.83;;;7.07;;
67965;SDS011;54749;47.850;9.002;2023-06-22T01:25:48;21.27;;;7.78;;
67965;SDS011;54749;47.850;9.002;2023-06-22T01:31:04;18.65;;;7.18;;
67965;SDS011;54749;47.850;9.002;2023-06-22T01:33:35;18.48;;;6.60;;
67965;SDS011;54749;47.850;9.002;2023-06-22T01:36:03;20.02;;;7.80;;
67965;SDS011;54749;47.850;9.002;2023-06-22T01:38:31;21.65;;;7.07;;
67965;SDS011;54749;47.850;9.002;2023-06-22T01:40:59;16.17;;;6.07;;
67965;SDS011;54749;47.850;9.002;2023-06-22T01:43:27;20.30;;;6.80;;
67965;SDS011;54749;47.850;9.002;2023-06-22T01:45:55;18.30;;;7.40;;
67965;SDS011;54749;47.850;9.002;2023-06-22T01:48:23;17.73;;;7.28;;
67965;SDS011;54749;47.850;9.002;2023-06-22T01:50:50;16.67;;;6.85;;
67965;SDS011;54749;47.850;9.002;2023-06-22T01:53:17;16.97;;;6.53;;
67965;SDS011;54749;47.850;9.002;2023-06-22T01:55:44;16.83;;;6.90;;
67965;SDS011;54749;47.850;9.002;2023-06-22T01:58:11;16.40;;;6.95;;
67965;SDS011;54749;47.850;9.002;2023-06-22T02:00:39;13.32;;;5.63;;
67965;SDS011;54749;47.850;9.002;2023-06-22T02:03:11;18.80;;;6.00;;
67965;SDS011;54749;47.850;9.002;2023-06-22T02:05:46;15.70;;;5.33;;
67965;SDS011;54749;47.850;9.002;2023-06-22T02:08:19;15.75;;;5.90;;
67965;SDS011;54749;47.850;9.002;2023-06-22T02:10:48;16.00;;;5.85;;
67965;SDS011;54749;47.850;9.002;2023-06-22T02:13:15;16.80;;;6.43;;
67965;SDS011;54749;47.850;9.002;2023-06-22T02:15:43;14.60;;;5.20;;
67965;SDS011;54749;47.850;9.002;2023-06-22T02:18:12;13.70;;;5.27;;
67965;SDS011;54749;47.850;9.002;2023-06-22T02:20:39;16.70;;;5.90;;
67965;SDS011;54749;47.850;9.002;2023-06-22T02:23:06;13.23;;;5.72;;
67965;SDS011;54749;47.850;9.002;2023-06-22T02:25:34;17.85;;;6.30;;
67965;SDS011;54749;47.850;9.002;2023-06-22T02:28:02;10.63;;;5.05;;
67965;SDS011;54749;47.850;9.002;2023-06-22T02:30:30;19.10;;;5.83;;
67965;SDS011;54749;47.850;9.002;2023-06-22T02:32:59;14.35;;;6.05;;
67965;SDS011;54749;47.850;9.002;2023-06-22T02:35:26;16.23;;;5.85;;
67965;SDS011;54749;47.850;9.002;2023-06-22T02:37:59;15.10;;;6.00;;
67965;SDS011;54749;47.850;9.002;2023-06-22T02:40:28;13.85;;;5.28;;
67965;SDS011;54749;47.850;9.002;2023-06-22T02:42:57;12.07;;;5.17;;
67965;SDS011;54749;47.850;9.002;2023-06-22T02:45:28;11.70;;;5.00;;
67965;SDS011;54749;47.850;9.002;2023-06-22T02:47:56;14.75;;;6.07;;
67965;SDS011;54749;47.850;9.002;2023-06-22T02:50:23;14.18;;;5.30;;
67965;SDS011;54749;47.850;9.002;2023-06-22T02:52:51;14.55;;;5.53;;
67965;SDS011;54749;47.850;9.002;2023-06-22T02:55:18;13.63;;;5.80;;
67965;SDS011;54749;47.850;9.002;2023-06-22T02:57:52;13.02;;;5.80;;
67965;SDS011;54749;47.850;9.002;2023-06-22T03:00:20;16.92;;;5.70;;
67965;SDS011;54749;47.850;9.002;2023-06-22T03:02:49;14.60;;;5.47;;
67965;SDS011;54749;47.850;9.002;2023-06-22T03:05:17;15.75;;;5.60;;
67965;SDS011;54749;47.850;9.002;2023-06-22T03:07:46;15.80;;;5.80;;
67965;SDS011;54749;47.850;9.002;2023-06-22T03:10:14;17.67;;;6.15;;
67965;SDS011;54749;47.850;9.002;2023-06-22T03:12:42;17.77;;;6.50;;
67965;SDS011;54749;47.850;9.002;2023-06-22T03:15:10;15.35;;;6.15;;
67965;SDS011;54749;47.850;9.002;2023-06-22T03:17:38;12.52;;;5.18;;
67965;SDS011;54749;47.850;9.002;2023-06-22T03:20:07;17.37;;;6.30;;
67965;SDS011;54749;47.850;9.002;2023-06-22T03:22:39;12.70;;;5.80;;
67965;SDS011;54749;47.850;9.002;2023-06-22T03:25:07;14.05;;;5.80;;
67965;SDS011;54749;47.850;9.002;2023-06-22T03:27:39;17.88;;;5.93;;
67965;SDS011;54749;47.850;9.002;2023-06-22T03:30:07;15.43;;;6.00;;
67965;SDS011;54749;47.850;9.002;2023-06-22T03:32:35;17.17;;;7.00;;
67965;SDS011;54749;47.850;9.002;2023-06-22T03:35:04;16.77;;;6.55;;
67965;SDS011;54749;47.850;9.002;2023-06-22T03:37:35;16.52;;;5.72;;
67965;SDS011;54749;47.850;9.002;2023-06-22T03:40:02;13.90;;;5.95;;
67965;SDS011;54749;47.850;9.002;2023-06-22T03:42:33;17.33;;;5.80;;
67965;SDS011;54749;47.850;9.002;2023-06-22T03:45:02;16.33;;;5.13;;
67965;SDS011;54749;47.850;9.002;2023-06-22T03:47:30;15.15;;;5.53;;
67965;SDS011;54749;47.850;9.002;2023-06-22T03:49:58;15.70;;;6.07;;
67965;SDS011;54749;47.850;9.002;2023-06-22T03:52:25;15.30;;;6.70;;
67965;SDS011;54749;47.850;9.002;2023-06-22T03:54:52;15.73;;;6.30;;
67965;SDS011;54749;47.850;9.002;2023-06-22T03:57:19;17.60;;;6.83;;
67965;SDS011;54749;47.850;9.002;2023-06-22T03:59:46;17.90;;;7.03;;
67965;SDS011;54749;47.850;9.002;2023-06-22T04:02:13;16.30;;;6.70;;
67965;SDS011;54749;47.850;9.002;2023-06-22T04:04:41;15.75;;;6.10;;
67965;SDS011;54749;47.850;9.002;2023-06-22T04:07:08;15.48;;;6.10;;
67965;SDS011;54749;47.850;9.002;2023-06-22T04:09:35;13.57;;;6.00;;
67965;SDS011;54749;47.850;9.002;2023-06-22T04:12:02;17.30;;;6.50;;
67965;SDS011;54749;47.850;9.002;2023-06-22T04:14:29;17.45;;;7.25;;
67965;SDS011;54749;47.850;9.002;2023-06-22T04:16:57;19.38;;;7.55;;
67965;SDS011;54749;47.850;9.002;2023-06-22T04:19:24;15.40;;;6.55;;
67965;SDS011;54749;47.850;9.002;2023-06-22T04:21:51;14.80;;;6.30;;
67965;SDS011;54749;47.850;9.002;2023-06-22T04:24:19;14.70;;;6.07;;
67965;SDS011;54749;47.850;9.002;2023-06-22T04:26:45;13.57;;;6.45;;
67965;SDS011;54749;47.850;9.002;2023-06-22T04:29:13;14.30;;;6.03;;
67965;SDS011;54749;47.850;9.002;2023-06-22T04:31:40;15.38;;;5.85;;
67965;SDS011;54749;47.850;9.002;2023-06-22T04:34:08;16.43;;;6.20;;
67965;SDS011;54749;47.850;9.002;2023-06-22T04:36:36;17.75;;;6.63;;
67965;SDS011;54749;47.850;9.002;2023-06-22T04:39:05;14.13;;;6.03;;
67965;SDS011;54749;47.850;9.002;2023-06-22T04:41:32;14.05;;;6.03;;
67965;SDS011;54749;47.850;9.002;2023-06-22T04:44:09;13.23;;;5.20;;
67965;SDS011;54749;47.850;9.002;2023-06-22T04:46:37;16.70;;;5.97;;
67965;SDS011;54749;47.850;9.002;2023-06-22T04:49:07;13.90;;;5.60;;
67965;SDS011;54749;47.850;9.002;2023-06-22T04:51:37;16.73;;;6.07;;
67965;SDS011;54749;47.850;9.002;2023-06-22T04:54:06;13.63;;;5.82;;
67965;SDS011;54749;47.850;9.002;2023-06-22T04:56:33;14.75;;;5.53;;
67965;SDS011;54749;47.850;9.002;2023-06-22T04:59:00;14.47;;;5.50;;
67965;SDS011;54749;47.850;9.002;2023-06-22T05:01:28;13.48;;;5.13;;
67965;SDS011;54749;47.850;9.002;2023-06-22T05:03:55;15.65;;;6.10;;
67965;SDS011;54749;47.850;9.002;2023-06-22T05:06:24;13.02;;;5.65;;
67965;SDS011;54749;47.850;9.002;2023-06-22T05:08:54;11.85;;;4.55;;
67965;SDS011;54749;47.850;9.002;2023-06-22T05:11:27;16.23;;;6.30;;
67965;SDS011;54749;47.850;9.002;2023-06-22T05:13:55;14.68;;;5.57;;
67965;SDS011;54749;47.850;9.002;2023-06-22T05:16:22;13.45;;;5.45;;
67965;SDS011;54749;47.850;9.002;2023-06-22T05:18:54;12.43;;;5.25;;
67965;SDS011;54749;47.850;9.002;2023-06-22T05:21:25;14.93;;;6.03;;
67965;SDS011;54749;47.850;9.002;2023-06-22T05:23:52;14.50;;;6.13;;
67965;SDS011;54749;47.850;9.002;2023-06-22T05:26:20;12.27;;;4.80;;
67965;SDS011;54749;47.850;9.002;2023-06-22T05:28:47;11.68;;;5.75;;
67965;SDS011;54749;47.850;9.002;2023-06-22T05:31:15;14.18;;;6.25;;
67965;SDS011;54749;47.850;9.002;2023-06-22T05:33:43;11.85;;;5.43;;
67965;SDS011;54749;47.850;9.002;2023-06-22T05:36:10;12.53;;;5.47;;
67965;SDS011;54749;47.850;9.002;2023-06-22T05:38:37;11.38;;;5.45;;
67965;SDS011;54749;47.850;9.002;2023-06-22T05:41:04;13.57;;;5.30;;
67965;SDS011;54749;47.850;9.002;2023-06-22T05:43:31;15.07;;;6.32;;
67965;SDS011;54749;47.850;9.002;2023-06-22T05:45:59;11.70;;;5.45;;
67965;SDS011;54749;47.850;9.002;2023-06-22T05:48:27;10.87;;;4.53;;
67965;SDS011;54749;47.850;9.002;2023-06-22T05:50:54;14.60;;;5.70;;
67965;SDS011;54749;47.850;9.002;2023-06-22T05:53:21;13.63;;;5.45;;
67965;SDS011;54749;47.850;9.002;2023-06-22T05:55:49;16.98;;;6.25;;
67965;SDS011;54749;47.850;9.002;2023-06-22T05:58:16;15.15;;;6.15;;
67965;SDS011;54749;47.850;9.002;2023-06-22T06:00:43;16.70;;;5.30;;
67965;SDS011;54749;47.850;9.002;2023-06-22T06:03:10;12.27;;;5.45;;
67965;SDS011;54749;47.850;9.002;2023-06-22T06:05:41;10.73;;;4.72;;
67965;SDS011;54749;47.850;9.002;2023-06-22T06:08:08;14.93;;;6.63;;
67965;SDS011;54749;47.850;9.002;2023-06-22T06:10:35;13.18;;;6.70;;
67965;SDS011;54749;47.850;9.002;2023-06-22T06:13:02;17.33;;;5.63;;
67965;SDS011;54749;47.850;9.002;2023-06-22T06:15:31;11.20;;;5.40;;
67965;SDS011;54749;47.850;9.002;2023-06-22T06:17:59;15.45;;;5.55;;
67965;SDS011;54749;47.850;9.002;2023-06-22T06:20:26;13.68;;;5.95;;
67965;SDS011;54749;47.850;9.002;2023-06-22T06:22:55;11.18;;;5.63;;
67965;SDS011;54749;47.850;9.002;2023-06-22T06:25:23;13.60;;;5.93;;
67965;SDS011;54749;47.850;9.002;2023-06-22T06:27:51;11.77;;;5.55;;
67965;SDS011;54749;47.850;9.002;2023-06-22T06:30:18;10.35;;;4.80;;
67965;SDS011;54749;47.850;9.002;2023-06-22T06:32:46;14.07;;;5.55;;
67965;SDS011;54749;47.850;9.002;2023-06-22T06:35:14;13.93;;;6.20;;
67965;SDS011;54749;47.850;9.002;2023-06-22T06:37:44;11.27;;;5.30;;
67965;SDS011;54749;47.850;9.002;2023-06-22T06:40:11;15.07;;;5.50;;
67965;SDS011;54749;47.850;9.002;2023-06-22T06:42:40;11.52;;;5.82;;
67965;SDS011;54749;47.850;9.002;2023-06-22T06:45:09;10.15;;;4.88;;
67965;SDS011;54749;47.850;9.002;2023-06-22T06:47:36;10.85;;;5.65;;
67965;SDS011;54749;47.850;9.002;2023-06-22T06:50:04;14.60;;;5.73;;
67965;SDS011;54749;47.850;9.002;2023-06-22T06:52:31;9.95;;;5.30;;
67965;SDS011;54749;47.850;9.002;2023-06-22T06:54:59;11.55;;;5.38;;
67965;SDS011;54749;47.850;9.002;2023-06-22T06:57:26;11.25;;;5.35;;
67965;SDS011;54749;47.850;9.002;2023-06-22T06:59:55;9.65;;;5.25;;
67965;SDS011;54749;47.850;9.002;2023-06-22T07:02:23;9.53;;;4.73;;
67965;SDS011;54749;47.850;9.002;2023-06-22T07:04:50;11.90;;;5.68;;
67965;SDS011;54749;47.850;9.002;2023-06-22T07:07:18;13.02;;;6.55;;
67965;SDS011;54749;47.850;9.002;2023-06-22T07:09:45;15.52;;;5.95;;
67965;SDS011;54749;47.850;9.002;2023-06-22T07:12:12;12.95;;;6.00;;
67965;SDS011;54749;47.850;9.002;2023-06-22T07:14:39;11.67;;;5.60;;
67965;SDS011;54749;47.850;9.002;2023-06-22T07:17:06;13.30;;;5.40;;
67965;SDS011;54749;47.850;9.002;2023-06-22T07:19:33;11.85;;;5.60;;
67965;SDS011;54749;47.850;9.002;2023-06-22T07:22:00;13.32;;;5.47;;
67965;SDS011;54749;47.850;9.002;2023-06-22T07:24:27;14.07;;;6.22;;
67965;SDS011;54749;47.850;9.002;2023-06-22T07:26:54;9.60;;;4.60;;
67965;SDS011;54749;47.850;9.002;2023-06-22T07:29:21;10.88;;;5.20;;
67965;SDS011;54749;47.850;9.002;2023-06-22T07:31:49;9.27;;;5.30;;
67965;SDS011;54749;47.850;9.002;2023-06-22T07:34:18;11.30;;;6.15;;
67965;SDS011;54749;47.850;9.002;2023-06-22T07:36:45;11.50;;;5.78;;
67965;SDS011;54749;47.850;9.002;2023-06-22T07:39:13;12.33;;;6.63;;
67965;SDS011;54749;47.850;9.002;2023-06-22T07:41:41;14.30;;;6.43;;
67965;SDS011;54749;47.850;9.002;2023-06-22T07:44:08;15.48;;;6.20;;
67965;SDS011;54749;47.850;9.002;2023-06-22T07:46:35;9.90;;;5.28;;
67965;SDS011;54749;47.850;9.002;2023-06-22T07:49:02;15.23;;;6.22;;
67965;SDS011;54749;47.850;9.002;2023-06-22T07:51:29;12.07;;;5.90;;
67965;SDS011;54749;47.850;9.002;2023-06-22T07:53:56;12.38;;;5.78;;
67965;SDS011;54749;47.850;9.002;2023-06-22T07:56:23;12.05;;;6.10;;
67965;SDS011;54749;47.850;9.002;2023-06-22T07:58:51;10.77;;;4.97;;
67965;SDS011;54749;47.850;9.002;2023-06-22T08:01:18;9.18;;;4.88;;
67965;SDS011;54749;47.850;9.002;2023-06-22T08:03:48;11.07;;;5.00;;
67965;SDS011;54749;47.850;9.002;2023-06-22T08:06:15;13.70;;;6.35;;
67965;SDS011;54749;47.850;9.002;2023-06-22T08:08:42;12.95;;;6.05;;
67965;SDS011;54749;47.850;9.002;2023-06-22T08:11:10;20.73;;;8.20;;
67965;SDS011;54749;47.850;9.002;2023-06-22T08:13:37;19.30;;;8.65;;
67965;SDS011;54749;47.850;9.002;2023-06-22T08:16:04;16.03;;;6.90;;
67965;SDS011;54749;47.850;9.002;2023-06-22T08:18:32;13.63;;;6.20;;
67965;SDS011;54749;47.850;9.002;2023-06-22T08:20:59;12.55;;;5.53;;
67965;SDS011;54749;47.850;9.002;2023-06-22T08:23:26;11.55;;;6.00;;
67965;SDS011;54749;47.850;9.002;2023-06-22T08:25:54;12.80;;;5.35;;
67965;SDS011;54749;47.850;9.002;2023-06-22T08:28:20;11.30;;;5.20;;
67965;SDS011;54749;47.850;9.002;2023-06-22T08:30:48;9.50;;;4.78;;
67965;SDS011;54749;47.850;9.002;2023-06-22T08:33:14;12.13;;;5.78;;
67965;SDS011;54749;47.850;9.002;2023-06-22T08:35:54;17.55;;;6.38;;
67965;SDS011;54749;47.850;9.002;2023-06-22T08:38:21;18.15;;;9.07;;
67965;SDS011;54749;47.850;9.002;2023-06-22T08:40:48;11.67;;;5.57;;
67965;SDS011;54749;47.850;9.002;2023-06-22T08:43:15;15.48;;;6.63;;
67965;SDS011;54749;47.850;9.002;2023-06-22T08:45:42;9.45;;;4.65;;
67965;SDS011;54749;47.850;9.002;2023-06-22T08:48:10;9.77;;;4.88;;
67965;SDS011;54749;47.850;9.002;2023-06-22T08:50:37;10.25;;;4.82;;
67965;SDS011;54749;47.850;9.002;2023-06-22T08:53:07;9.40;;;4.57;;
67965;SDS011;54749;47.850;9.002;2023-06-22T08:55:34;11.90;;;5.28;;
67965;SDS011;54749;47.850;9.002;2023-06-22T08:58:01;11.65;;;4.78;;
67965;SDS011;54749;47.850;9.002;2023-06-22T09:00:29;13.82;;;5.70;;
67965;SDS011;54749;47.850;9.002;2023-06-22T09:02:59;12.32;;;5.78;;
67965;SDS011;54749;47.850;9.002;2023-06-22T09:05:27;10.77;;;4.80;;
67965;SDS011;54749;47.850;9.002;2023-06-22T09:07:56;12.88;;;5.53;;
67965;SDS011;54749;47.850;9.002;2023-06-22T09:10:23;10.45;;;4.38;;
67965;SDS011;54749;47.850;9.002;2023-06-22T09:12:50;9.57;;;5.10;;
67965;SDS011;54749;47.850;9.002;2023-06-22T09:15:17;10.57;;;4.57;;
67965;SDS011;54749;47.850;9.002;2023-06-22T09:17:44;11.60;;;5.30;;
67965;SDS011;54749;47.850;9.002;2023-06-22T09:20:14;11.48;;;5.70;;
67965;SDS011;54749;47.850;9.002;2023-06-22T09:22:41;10.43;;;5.05;;
67965;SDS011;54749;47.850;9.002;2023-06-22T09:25:08;12.63;;;6.05;;
67965;SDS011;54749;47.850;9.002;2023-06-22T09:27:36;12.77;;;5.53;;
67965;SDS011;54749;47.850;9.002;2023-06-22T09:30:03;11.00;;;4.73;;
67965;SDS011;54749;47.850;9.002;2023-06-22T09:32:30;11.52;;;5.30;;
67965;SDS011;54749;47.850;9.002;2023-06-22T09:34:58;10.18;;;4.90;;
67965;SDS011;54749;47.850;9.002;2023-06-22T09:37:25;11.73;;;5.80;;
67965;SDS011;54749;47.850;9.002;2023-06-22T09:39:52;10.85;;;5.40;;
67965;SDS011;54749;47.850;9.002;2023-06-22T09:42:19;12.90;;;5.93;;
67965;SDS011;54749;47.850;9.002;2023-06-22T09:44:47;12.88;;;6.00;;
67965;SDS011;54749;47.850;9.002;2023-06-22T09:47:14;12.45;;;4.93;;
67965;SDS011;54749;47.850;9.002;2023-06-22T09:49:42;11.20;;;5.10;;
67965;SDS011;54749;47.850;9.002;2023-06-22T09:52:14;10.55;;;4.63;;
67965;SDS011;54749;47.850;9.002;2023-06-22T09:54:41;11.87;;;4.50;;
67965;SDS011;54749;47.850;9.002;2023-06-22T09:57:08;11.70;;;4.75;;
67965;SDS011;54749;47.850;9.002;2023-06-22T09:59:35;10.82;;;5.13;;
67965;SDS011;54749;47.850;9.002;2023-06-22T10:02:02;10.15;;;4.60;;
67965;SDS011;54749;47.850;9.002;2023-06-22T10:04:30;10.48;;;5.03;;
67965;SDS011;54749;47.850;9.002;2023-06-22T10:06:57;11.07;;;4.30;;
67965;SDS011;54749;47.850;9.002;2023-06-22T10:09:24;13.05;;;5.47;;
67965;SDS011;54749;47.850;9.002;2023-06-22T10:11:51;12.63;;;5.35;;
67965;SDS011;54749;47.850;9.002;2023-06-22T10:14:18;12.25;;;5.40;;
67965;SDS011;54749;47.850;9.002;2023-06-22T10:16:45;11.20;;;5.13;;
67965;SDS011;54749;47.850;9.002;2023-06-22T10:19:12;11.40;;;5.30;;
67965;SDS011;54749;47.850;9.002;2023-06-22T10:21:40;13.73;;;5.82;;
67965;SDS011;54749;47.850;9.002;2023-06-22T10:24:07;10.85;;;5.53;;
67965;SDS011;54749;47.850;9.002;2023-06-22T10:26:35;16.20;;;6.38;;
67965;SDS011;54749;47.850;9.002;2023-06-22T10:29:03;12.52;;;6.05;;
67965;SDS011;54749;47.850;9.002;2023-06-22T10:31:42;12.97;;;5.00;;
67965;SDS011;54749;47.850;9.002;2023-06-22T10:34:09;14.27;;;5.78;;
67965;SDS011;54749;47.850;9.002;2023-06-22T10:36:36;14.88;;;6.28;;
67965;SDS011;54749;47.850;9.002;2023-06-22T10:39:04;12.68;;;5.25;;
67965;SDS011;54749;47.850;9.002;2023-06-22T10:41:31;14.80;;;6.45;;
67965;SDS011;54749;47.850;9.002;2023-06-22T10:43:58;14.77;;;6.93;;
67965;SDS011;54749;47.850;9.002;2023-06-22T10:46:25;15.07;;;7.55;;
67965;SDS011;54749;47.850;9.002;2023-06-22T10:48:55;11.00;;;5.80;;
67965;SDS011;54749;47.850;9.002;2023-06-22T10:51:24;13.27;;;5.38;;
67965;SDS011;54749;47.850;9.002;2023-06-22T10:53:51;14.88;;;5.70;;
67965;SDS011;54749;47.850;9.002;2023-06-22T10:56:18;13.07;;;7.07;;
67965;SDS011;54749;47.850;9.002;2023-06-22T10:58:46;12.63;;;5.88;;
67965;SDS011;54749;47.850;9.002;2023-06-22T11:01:13;11.80;;;6.05;;
67965;SDS011;54749;47.850;9.002;2023-06-22T11:03:59;12.10;;;5.40;;
67965;SDS011;54749;47.850;9.002;2023-06-22T11:06:27;12.65;;;5.70;;
67965;SDS011;54749;47.850;9.002;2023-06-22T11:08:54;11.60;;;5.13;;
67965;SDS011;54749;47.850;9.002;2023-06-22T11:11:30;11.80;;;5.20;;
67965;SDS011;54749;47.850;9.002;2023-06-22T11:13:57;11.63;;;5.53;;
67965;SDS011;54749;47.850;9.002;2023-06-22T11:16:24;11.95;;;5.50;;
67965;SDS011;54749;47.850;9.002;2023-06-22T11:18:51;10.77;;;4.90;;
67965;SDS011;54749;47.850;9.002;2023-06-22T11:21:19;12.33;;;5.27;;
67965;SDS011;54749;47.850;9.002;2023-06-22T11:23:46;12.70;;;5.55;;
67965;SDS011;54749;47.850;9.002;2023-06-22T11:26:13;12.02;;;5.70;;
67965;SDS011;54749;47.850;9.002;2023-06-22T11:28:40;14.23;;;5.90;;
67965;SDS011;54749;47.850;9.002;2023-06-22T11:31:07;13.18;;;6.40;;
67965;SDS011;54749;47.850;9.002;2023-06-22T11:33:51;13.90;;;5.70;;
67965;SDS011;54749;47.850;9.002;2023-06-22T11:36:21;13.20;;;5.35;;
67965;SDS011;54749;47.850;9.002;2023-06-22T11:39:12;13.05;;;6.15;;
67965;SDS011;54749;47.850;9.002;2023-06-22T11:41:55;12.90;;;5.70;;
67965;SDS011;54749;47.850;9.002;2023-06-22T11:44:22;15.65;;;6.97;;
67965;SDS011;54749;47.850;9.002;2023-06-22T11:46:49;14.40;;;5.63;;
67965;SDS011;54749;47.850;9.002;2023-06-22T11:49:16;15.15;;;5.15;;
67965;SDS011;54749;47.850;9.002;2023-06-22T11:51:44;13.23;;;5.28;;
67965;SDS011;54749;47.850;9.002;2023-06-22T11:54:11;13.32;;;5.68;;
67965;SDS011;54749;47.850;9.002;2023-06-22T11:56:38;19.52;;;7.10;;
67965;SDS011;54749;47.850;9.002;2023-06-22T11:59:05;11.50;;;5.57;;
67965;SDS011;54749;47.850;9.002;2023-06-22T12:01:32;11.48;;;5.53;;
67965;SDS011;54749;47.850;9.002;2023-06-22T12:04:00;16.30;;;6.15;;
67965;SDS011;54749;47.850;9.002;2023-06-22T12:06:27;15.13;;;6.47;;
67965;SDS011;54749;47.850;9.002;2023-06-22T12:08:55;15.05;;;6.28;;
67965;SDS011;54749;47.850;9.002;2023-06-22T12:11:21;15.47;;;5.83;;
67965;SDS011;54749;47.850;9.002;2023-06-22T12:13:49;11.75;;;5.80;;
67965;SDS011;54749;47.850;9.002;2023-06-22T12:16:16;15.95;;;6.88;;
67965;SDS011;54749;47.850;9.002;2023-06-22T12:18:43;14.60;;;6.03;;
67965;SDS011;54749;47.850;9.002;2023-06-22T12:21:10;16.67;;;6.40;;
67965;SDS011;54749;47.850;9.002;2023-06-22T12:23:38;18.03;;;6.90;;
67965;SDS011;54749;47.850;9.002;2023-06-22T12:26:04;13.48;;;6.60;;
67965;SDS011;54749;47.850;9.002;2023-06-22T12:28:32;15.60;;;5.90;;
67965;SDS011;54749;47.850;9.002;2023-06-22T12:30:59;12.63;;;5.40;;
67965;SDS011;54749;47.850;9.002;2023-06-22T12:33:26;14.43;;;5.30;;
67965;SDS011;54749;47.850;9.002;2023-06-22T12:35:53;15.37;;;5.87;;
67965;SDS011;54749;47.850;9.002;2023-06-22T12:38:20;13.43;;;5.63;;
67965;SDS011;54749;47.850;9.002;2023-06-22T12:40:47;13.07;;;5.82;;
67965;SDS011;54749;47.850;9.002;2023-06-22T12:43:16;14.90;;;5.35;;
67965;SDS011;54749;47.850;9.002;2023-06-22T12:45:43;14.18;;;6.07;;
67965;SDS011;54749;47.850;9.002;2023-06-22T12:48:10;12.53;;;5.13;;
67965;SDS011;54749;47.850;9.002;2023-06-22T12:50:37;13.30;;;5.53;;
67965;SDS011;54749;47.850;9.002;2023-06-22T12:53:05;13.35;;;5.28;;
67965;SDS011;54749;47.850;9.002;2023-06-22T12:55:32;13.23;;;5.95;;
67965;SDS011;54749;47.850;9.002;2023-06-22T12:58:00;12.70;;;5.80;;
67965;SDS011;54749;47.850;9.002;2023-06-22T13:00:27;12.93;;;6.03;;
67965;SDS011;54749;47.850;9.002;2023-06-22T13:02:54;10.43;;;4.60;;
67965;SDS011;54749;47.850;9.002;2023-06-22T13:05:23;15.38;;;5.57;;
67965;SDS011;54749;47.850;9.002;2023-06-22T13:07:51;11.65;;;4.38;;
67965;SDS011;54749;47.850;9.002;2023-06-22T13:10:18;10.65;;;4.90;;
67965;SDS011;54749;47.850;9.002;2023-06-22T13:12:45;11.17;;;4.90;;
67965;SDS011;54749;47.850;9.002;2023-06-22T13:15:12;11.95;;;5.25;;
67965;SDS011;54749;47.850;9.002;2023-06-22T13:17:39;14.52;;;5.45;;
67965;SDS011;54749;47.850;9.002;2023-06-22T13:20:06;11.00;;;4.80;;
67965;SDS011;54749;47.850;9.002;2023-06-22T13:22:34;12.52;;;5.32;;
67965;SDS011;54749;47.850;9.002;2023-06-22T13:25:10;19.70;;;6.83;;
67965;SDS011;54749;47.850;9.002;2023-06-22T13:27:40;10.57;;;5.15;;
67965;SDS011;54749;47.850;9.002;2023-06-22T13:30:07;15.40;;;5.47;;
67965;SDS011;54749;47.850;9.002;2023-06-22T13:32:39;21.23;;;6.32;;
67965;SDS011;54749;47.850;9.002;2023-06-22T13:35:16;15.48;;;5.45;;
67965;SDS011;54749;47.850;9.002;2023-06-22T13:37:51;12.53;;;4.60;;
67965;SDS011;54749;47.850;9.002;2023-06-22T13:40:21;12.30;;;5.38;;
67965;SDS011;54749;47.850;9.002;2023-06-22T13:42:59;14.85;;;5.30;;
67965;SDS011;54749;47.850;9.002;2023-06-22T13:45:36;12.73;;;4.82;;
67965;SDS011;54749;47.850;9.002;2023-06-22T13:48:06;12.85;;;4.70;;
67965;SDS011;54749;47.850;9.002;2023-06-22T13:50:58;13.33;;;5.70;;
67965;SDS011;54749;47.850;9.002;2023-06-22T13:53:35;12.52;;;5.43;;
67965;SDS011;54749;47.850;9.002;2023-06-22T13:56:10;19.17;;;6.95;;
67965;SDS011;54749;47.850;9.002;2023-06-22T13:58:38;25.00;;;9.80;;
67965;SDS011;54749;47.850;9.002;2023-06-22T14:01:05;14.68;;;6.35;;
67965;SDS011;54749;47.850;9.002;2023-06-22T14:03:33;14.67;;;6.20;;
67965;SDS011;54749;47.850;9.002;2023-06-22T14:06:00;12.13;;;5.05;;
67965;SDS011;54749;47.850;9.002;2023-06-22T14:08:28;11.10;;;4.55;;
67965;SDS011;54749;47.850;9.002;2023-06-22T14:11:07;12.45;;;4.30;;
67965;SDS011;54749;47.850;9.002;2023-06-22T14:13:34;11.85;;;4.38;;
67965;SDS011;54749;47.850;9.002;2023-06-22T14:16:02;10.53;;;4.10;;
67965;SDS011;54749;47.850;9.002;2023-06-22T14:18:31;11.65;;;4.63;;
67965;SDS011;54749;47.850;9.002;2023-06-22T14:20:58;15.20;;;6.45;;
67965;SDS011;54749;47.850;9.002;2023-06-22T14:23:25;17.00;;;5.32;;
67965;SDS011;54749;47.850;9.002;2023-06-22T14:25:52;11.07;;;4.72;;
67965;SDS011;54749;47.850;9.002;2023-06-22T14:28:19;12.37;;;4.70;;
67965;SDS011;54749;47.850;9.002;2023-06-22T14:30:46;15.02;;;4.47;;
67965;SDS011;54749;47.850;9.002;2023-06-22T14:33:13;11.25;;;4.07;;
67965;SDS011;54749;47.850;9.002;2023-06-22T14:35:40;10.27;;;3.90;;
67965;SDS011;54749;47.850;9.002;2023-06-22T14:38:07;13.25;;;4.10;;
67965;SDS011;54749;47.850;9.002;2023-06-22T14:40:34;12.47;;;4.03;;
67965;SDS011;54749;47.850;9.002;2023-06-22T14:43:19;11.27;;;3.50;;
67965;SDS011;54749;47.850;9.002;2023-06-22T14:45:46;13.32;;;4.15;;
67965;SDS011;54749;47.850;9.002;2023-06-22T14:48:13;10.82;;;4.40;;
67965;SDS011;54749;47.850;9.002;2023-06-22T14:50:40;14.00;;;4.25;;
67965;SDS011;54749;47.850;9.002;2023-06-22T14:53:07;12.43;;;4.63;;